createdAt,value
2023-02-08T00:02:06.373Z,2.30
2023-02-08T00:04:32.792Z,2.67
2023-02-08T00:06:59.130Z,2.80
2023-02-08T00:09:25.502Z,2.57
2023-02-08T00:11:51.847Z,2.57
2023-02-08T00:14:18.229Z,2.43
2023-02-08T00:16:44.579Z,2.93
2023-02-08T00:19:11.076Z,2.70
2023-02-08T00:21:37.418Z,2.60
2023-02-08T00:24:05.043Z,2.40
2023-02-08T00:26:30.186Z,2.43
2023-02-08T00:28:58.220Z,2.30
2023-02-08T00:31:23.030Z,3.00
2023-02-08T00:33:49.286Z,2.37
2023-02-08T00:36:15.627Z,2.33
2023-02-08T00:38:42.022Z,2.20
2023-02-08T00:41:08.369Z,2.30
2023-02-08T00:43:34.755Z,2.37
2023-02-08T00:46:01.096Z,2.37
2023-02-08T00:48:27.474Z,2.70
2023-02-08T00:50:53.808Z,2.50
2023-02-08T00:53:20.197Z,2.60
2023-02-08T00:55:46.547Z,2.53
2023-02-08T00:58:14.641Z,2.60
2023-02-08T01:00:39.579Z,2.30
2023-02-08T01:03:05.639Z,2.40
2023-02-08T01:05:31.984Z,2.13
2023-02-08T01:07:58.421Z,2.40
2023-02-08T01:10:24.810Z,2.87
2023-02-08T01:12:51.161Z,2.20
2023-02-08T01:15:17.500Z,2.47
2023-02-08T01:17:43.886Z,2.57
2023-02-08T01:20:10.262Z,2.40
2023-02-08T01:22:36.634Z,2.20
2023-02-08T01:25:02.980Z,2.40
2023-02-08T01:27:29.369Z,2.60
2023-02-08T01:29:55.699Z,2.20
2023-02-08T01:32:22.081Z,2.40
2023-02-08T01:34:48.474Z,2.53
2023-02-08T01:37:14.814Z,2.30
2023-02-08T01:39:41.163Z,2.40
2023-02-08T01:42:07.551Z,2.57
2023-02-08T01:44:33.889Z,2.40
2023-02-08T01:47:00.267Z,2.10
2023-02-08T01:49:26.607Z,2.23
2023-02-08T01:51:53.028Z,2.40
2023-02-08T01:54:21.324Z,2.23
2023-02-08T01:56:45.872Z,2.30
2023-02-08T01:59:12.105Z,2.10
2023-02-08T02:01:38.482Z,2.43
2023-02-08T02:04:04.871Z,2.43
2023-02-08T02:06:31.224Z,2.30
2023-02-08T02:08:57.598Z,2.10
2023-02-08T02:11:23.986Z,2.20
2023-02-08T02:13:50.324Z,2.10
2023-02-08T02:16:16.821Z,2.27
2023-02-08T02:18:44.408Z,2.10
2023-02-08T02:21:09.474Z,2.10
2023-02-08T02:23:35.846Z,2.27
2023-02-08T02:26:02.202Z,2.20
2023-02-08T02:28:28.545Z,2.20
2023-02-08T02:30:54.942Z,2.37
2023-02-08T02:33:21.262Z,2.10
2023-02-08T02:35:47.840Z,2.50
2023-02-08T02:38:14.184Z,1.90
2023-02-08T02:40:40.826Z,2.20
2023-02-08T02:43:06.957Z,2.00
2023-02-08T02:45:33.368Z,2.37
2023-02-08T02:47:59.689Z,2.20
2023-02-08T02:50:26.077Z,2.00
2023-02-08T02:52:52.415Z,2.10
2023-02-08T02:55:18.808Z,2.17
2023-02-08T02:57:45.140Z,1.80
2023-02-08T03:00:11.550Z,2.10
2023-02-08T03:02:37.891Z,2.00
2023-02-08T03:05:04.270Z,2.13
2023-02-08T03:07:30.618Z,2.07
2023-02-08T03:09:57.048Z,1.87
2023-02-08T03:12:23.386Z,2.20
2023-02-08T03:14:49.765Z,2.63
2023-02-08T03:17:16.108Z,2.50
2023-02-08T03:19:42.487Z,2.43
2023-02-08T03:22:08.864Z,2.50
2023-02-08T03:24:35.248Z,2.50
2023-02-08T03:27:01.597Z,2.50
2023-02-08T03:29:27.980Z,2.47
2023-02-08T03:31:54.445Z,2.13
2023-02-08T03:34:20.720Z,2.60
2023-02-08T03:36:47.051Z,2.60
2023-02-08T03:39:13.470Z,2.70
2023-02-08T03:41:39.814Z,2.50
2023-02-08T03:44:06.192Z,2.67
2023-02-08T03:46:32.529Z,2.30
2023-02-08T03:48:58.911Z,2.90
2023-02-08T03:51:25.258Z,2.80
2023-02-08T03:53:51.639Z,3.00
2023-02-08T03:56:17.973Z,2.70
2023-02-08T03:58:44.358Z,2.90
2023-02-08T04:01:10.755Z,2.80
2023-02-08T04:03:37.072Z,2.70
2023-02-08T04:06:03.414Z,2.60
2023-02-08T04:08:29.800Z,2.60
2023-02-08T04:10:56.132Z,2.87
2023-02-08T04:13:22.542Z,2.60
2023-02-08T04:15:48.889Z,2.97
2023-02-08T04:18:15.259Z,3.00
2023-02-08T04:20:41.762Z,3.10
2023-02-08T04:23:07.932Z,2.83
2023-02-08T04:25:34.324Z,3.10
2023-02-08T04:28:00.717Z,2.97
2023-02-08T04:30:27.059Z,2.60
2023-02-08T04:32:53.378Z,2.60
2023-02-08T04:35:19.761Z,2.93
2023-02-08T04:37:46.107Z,2.63
2023-02-08T04:40:12.588Z,2.77
2023-02-08T04:42:39.007Z,2.87
2023-02-08T04:45:05.424Z,3.10
2023-02-08T04:47:31.772Z,3.03
2023-02-08T04:49:58.157Z,3.10
2023-02-08T04:52:24.491Z,3.00
2023-02-08T04:54:50.866Z,3.17
2023-02-08T04:57:17.269Z,2.40
2023-02-08T04:59:43.653Z,3.17
2023-02-08T05:02:09.991Z,2.80
2023-02-08T05:04:36.376Z,3.20
2023-02-08T05:07:02.752Z,3.17
2023-02-08T05:09:29.144Z,2.90
2023-02-08T05:11:55.486Z,2.80
2023-02-08T05:14:21.859Z,3.17
2023-02-08T05:16:48.206Z,3.30
2023-02-08T05:19:14.586Z,3.50
2023-02-08T05:21:40.922Z,3.13
2023-02-08T05:24:07.302Z,3.70
2023-02-08T05:26:33.689Z,3.13
2023-02-08T05:29:00.063Z,3.97
2023-02-08T05:34:11.711Z,3.40
2023-02-08T05:36:38.051Z,4.27
2023-02-08T05:39:04.453Z,3.67
2023-02-08T05:41:30.775Z,4.07
2023-02-08T05:43:57.159Z,4.10
2023-02-08T05:46:23.529Z,3.50
2023-02-08T05:48:49.888Z,3.90
2023-02-08T05:51:16.222Z,3.90
2023-02-08T05:53:42.602Z,3.60
2023-02-08T05:56:08.938Z,4.10
2023-02-08T05:58:35.359Z,3.60
2023-02-08T06:01:01.708Z,4.10
2023-02-08T06:03:28.091Z,3.90
2023-02-08T06:05:54.431Z,3.90
2023-02-08T06:08:20.813Z,3.67
2023-02-08T06:10:47.157Z,4.17
2023-02-08T06:13:13.542Z,3.97
2023-02-08T06:15:39.876Z,4.23
2023-02-08T06:18:06.273Z,4.00
2023-02-08T06:20:32.614Z,3.80
2023-02-08T06:22:59.003Z,3.73
2023-02-08T06:25:25.337Z,3.70
2023-02-08T06:27:51.773Z,3.70
2023-02-08T06:30:18.084Z,4.10
2023-02-08T06:32:44.469Z,4.10
2023-02-08T06:35:10.811Z,4.20
2023-02-08T06:37:37.197Z,3.60
2023-02-08T06:40:04.539Z,4.17
2023-02-08T06:42:29.957Z,4.23
2023-02-08T06:44:56.298Z,4.27
2023-02-08T06:47:22.679Z,3.80
2023-02-08T06:49:49.022Z,4.07
2023-02-08T06:52:15.417Z,3.83
2023-02-08T06:54:41.773Z,3.80
2023-02-08T06:57:08.141Z,4.10
2023-02-08T06:59:34.490Z,4.17
2023-02-08T07:02:01.440Z,4.13
2023-02-08T07:04:27.241Z,4.20
2023-02-08T07:06:55.773Z,4.43
2023-02-08T07:09:22.126Z,5.60
2023-02-08T07:11:48.526Z,4.53
2023-02-08T07:14:14.875Z,4.30
2023-02-08T07:16:41.283Z,4.50
2023-02-08T07:19:07.592Z,3.97
2023-02-08T07:21:33.980Z,4.20
2023-02-08T07:24:00.342Z,4.50
2023-02-08T07:26:26.731Z,4.23
2023-02-08T07:28:53.061Z,4.07
2023-02-08T07:31:19.449Z,4.70
2023-02-08T07:33:45.788Z,4.30
2023-02-08T07:36:12.171Z,4.27
2023-02-08T07:38:38.515Z,4.43
2023-02-08T07:41:04.900Z,3.93
2023-02-08T07:43:31.262Z,4.20
2023-02-08T07:45:57.694Z,4.00
2023-02-08T07:48:24.022Z,4.23
2023-02-08T07:50:50.405Z,4.33
2023-02-08T07:53:16.743Z,4.30
2023-02-08T07:55:43.190Z,4.20
2023-02-08T07:58:09.547Z,4.20
2023-02-08T08:00:35.929Z,3.73
2023-02-08T08:03:02.268Z,4.70
2023-02-08T08:05:28.744Z,4.07
2023-02-08T08:07:55.091Z,4.37
2023-02-08T08:10:21.490Z,4.37
2023-02-08T08:12:47.844Z,4.50
2023-02-08T08:15:14.235Z,4.80
2023-02-08T08:17:40.575Z,4.70
2023-02-08T08:20:06.973Z,4.70
2023-02-08T08:22:33.321Z,4.70
2023-02-08T08:24:59.734Z,4.33
2023-02-08T08:27:26.048Z,4.50
2023-02-08T08:29:52.436Z,4.40
2023-02-08T08:32:18.811Z,4.83
2023-02-08T08:34:45.216Z,4.93
2023-02-08T08:37:11.580Z,5.07
2023-02-08T08:39:37.978Z,4.67
2023-02-08T08:42:04.325Z,4.80
2023-02-08T08:44:30.701Z,6.20
2023-02-08T08:46:57.102Z,4.83
2023-02-08T08:49:24.881Z,5.07
2023-02-08T08:51:49.826Z,4.67
2023-02-08T08:54:16.226Z,4.07
2023-02-08T08:56:42.617Z,4.90
2023-02-08T08:59:08.984Z,4.27
2023-02-08T09:01:35.366Z,4.60
2023-02-08T09:04:01.722Z,4.40
2023-02-08T09:06:28.063Z,4.63
2023-02-08T09:08:54.446Z,4.60
2023-02-08T09:11:20.828Z,4.60
2023-02-08T09:13:47.208Z,4.37
2023-02-08T09:16:13.764Z,4.43
2023-02-08T09:18:39.948Z,4.47
2023-02-08T09:21:06.297Z,4.10
2023-02-08T09:23:32.789Z,4.33
2023-02-08T09:25:59.118Z,4.50
2023-02-08T09:28:25.541Z,4.33
2023-02-08T09:30:51.917Z,3.47
2023-02-08T09:33:18.246Z,4.13
2023-02-08T09:35:44.745Z,4.30
2023-02-08T09:38:10.996Z,4.37
2023-02-08T09:40:37.347Z,3.70
2023-02-08T09:43:03.770Z,5.00
2023-02-08T09:45:30.116Z,3.53
2023-02-08T09:47:56.502Z,4.00
2023-02-08T09:50:22.862Z,3.47
2023-02-08T09:52:49.261Z,3.70
2023-02-08T09:55:15.662Z,3.40
2023-02-08T09:57:42.050Z,3.73
2023-02-08T10:00:08.399Z,4.00
2023-02-08T10:02:34.836Z,4.07
2023-02-08T10:05:01.207Z,3.77
2023-02-08T10:07:27.663Z,3.70
2023-02-08T10:09:54.013Z,3.37
2023-02-08T10:12:20.410Z,3.40
2023-02-08T10:14:46.781Z,3.20
2023-02-08T10:17:13.249Z,3.73
2023-02-08T10:19:39.590Z,3.77
2023-02-08T10:22:06.012Z,3.63
2023-02-08T10:24:32.355Z,3.70
2023-02-08T10:26:58.744Z,3.70
2023-02-08T10:29:25.092Z,3.20
2023-02-08T10:31:51.539Z,3.73
2023-02-08T10:34:17.838Z,3.17
2023-02-08T10:36:44.236Z,3.20
2023-02-08T10:39:10.956Z,3.27
2023-02-08T10:41:37.348Z,3.40
2023-02-08T10:44:03.695Z,3.10
2023-02-08T10:46:30.074Z,3.43
2023-02-08T10:48:56.430Z,2.90
2023-02-08T10:51:22.828Z,3.37
2023-02-08T10:53:49.195Z,3.97
2023-02-08T10:56:15.574Z,3.57
2023-02-08T10:58:42.099Z,2.97
2023-02-08T11:01:08.966Z,3.13
2023-02-08T11:03:34.737Z,3.00
2023-02-08T11:06:01.124Z,3.50
2023-02-08T11:08:27.504Z,3.30
2023-02-08T11:10:53.905Z,2.87
2023-02-08T11:13:20.403Z,2.80
2023-02-08T11:15:47.865Z,2.93
2023-02-08T11:18:13.284Z,3.10
2023-02-08T11:20:39.726Z,2.90
2023-02-08T11:23:06.068Z,2.83
2023-02-08T11:25:33.889Z,2.50
2023-02-08T11:27:58.874Z,3.13
2023-02-08T11:30:25.288Z,3.50
2023-02-08T11:32:51.597Z,2.97
2023-02-08T11:35:17.991Z,3.03
2023-02-08T11:37:44.332Z,2.77
2023-02-08T11:40:10.733Z,2.97
2023-02-08T11:42:37.092Z,3.00
2023-02-08T11:45:03.567Z,2.60
2023-02-08T11:47:30.052Z,2.70
2023-02-08T11:49:56.480Z,3.23
2023-02-08T11:52:22.802Z,2.60
2023-02-08T11:54:49.272Z,2.90
2023-02-08T11:57:15.615Z,2.60
2023-02-08T11:59:42.007Z,2.77
2023-02-08T12:02:08.410Z,3.00
2023-02-08T12:04:34.757Z,3.17
2023-02-08T12:07:01.110Z,2.70
2023-02-08T12:09:27.514Z,2.67
2023-02-08T12:11:53.872Z,3.00
2023-02-08T12:14:20.275Z,2.50
2023-02-08T12:16:46.624Z,2.80
2023-02-08T12:19:13.042Z,2.30
2023-02-08T12:21:39.403Z,2.37
2023-02-08T12:24:05.910Z,2.80
2023-02-08T12:26:32.249Z,2.70
2023-02-08T12:28:58.643Z,2.50
2023-02-08T12:31:25.063Z,2.60
2023-02-08T12:33:51.392Z,2.77
2023-02-08T12:36:17.743Z,2.80
2023-02-08T12:38:44.103Z,2.37
2023-02-08T12:41:10.449Z,2.90
2023-02-08T12:43:36.834Z,2.90
2023-02-08T12:46:03.231Z,2.77
2023-02-08T12:48:29.560Z,2.60
2023-02-08T12:50:55.894Z,2.70
2023-02-08T12:53:22.284Z,2.77
2023-02-08T12:55:48.617Z,2.50
2023-02-08T12:58:15.033Z,2.57
2023-02-08T13:00:41.786Z,2.33
2023-02-08T13:03:07.782Z,2.37
2023-02-08T13:05:34.236Z,2.53
2023-02-08T13:08:00.622Z,2.93
2023-02-08T13:10:26.982Z,2.40
2023-02-08T13:12:53.363Z,2.57
2023-02-08T13:15:30.073Z,2.50
2023-02-08T13:17:46.195Z,2.70
2023-02-08T13:20:12.562Z,2.00
2023-02-08T13:22:38.974Z,2.30
2023-02-08T13:25:07.954Z,2.10
2023-02-08T13:27:31.739Z,2.53
2023-02-08T13:29:58.088Z,2.27
2023-02-08T13:32:24.477Z,2.30
2023-02-08T13:34:50.844Z,2.50
2023-02-08T13:37:24.885Z,2.20
2023-02-08T13:39:43.604Z,2.07
2023-02-08T13:42:09.972Z,2.80
2023-02-08T13:44:36.326Z,2.17
2023-02-08T13:47:02.701Z,2.63
2023-02-08T13:49:29.129Z,1.80
2023-02-08T13:51:55.673Z,2.30
2023-02-08T13:54:22.022Z,2.10
2023-02-08T13:56:48.519Z,2.23
2023-02-08T13:59:16.465Z,2.40
2023-02-08T14:01:41.381Z,2.60
2023-02-08T14:04:07.738Z,2.40
2023-02-08T14:06:34.164Z,2.33
2023-02-08T14:09:00.511Z,2.27
2023-02-08T14:11:28.699Z,2.20
2023-02-08T14:13:53.273Z,2.27
2023-02-08T14:16:19.676Z,2.30
2023-02-08T14:18:47.353Z,2.13
2023-02-08T14:21:12.434Z,2.17
2023-02-08T14:23:40.565Z,2.53
2023-02-08T14:26:05.272Z,2.10
2023-02-08T14:28:31.613Z,2.20
2023-02-08T14:30:58.093Z,2.07
2023-02-08T14:33:24.366Z,2.13
2023-02-08T14:35:50.763Z,2.13
2023-02-08T14:38:17.122Z,2.00
2023-02-08T14:40:43.724Z,2.10
2023-02-08T14:43:09.860Z,1.90
2023-02-08T14:45:36.340Z,2.17
2023-02-08T14:48:02.703Z,2.37
2023-02-08T14:50:29.137Z,2.17
2023-02-08T14:52:55.468Z,1.90
2023-02-08T14:55:21.823Z,2.20
2023-02-08T14:57:48.199Z,2.40
2023-02-08T15:00:14.535Z,2.07
2023-02-08T15:02:40.938Z,2.20
2023-02-08T15:05:10.443Z,2.20
2023-02-08T15:07:33.785Z,2.10
2023-02-08T15:10:00.039Z,2.00
2023-02-08T15:12:26.447Z,2.00
2023-02-08T15:14:52.834Z,2.20
2023-02-08T15:17:19.226Z,2.10
2023-02-08T15:19:45.566Z,2.20
2023-02-08T15:22:13.175Z,2.07
2023-02-08T15:24:39.591Z,2.33
2023-02-08T15:27:04.682Z,1.93
2023-02-08T15:29:44.019Z,2.20
2023-02-08T15:31:57.473Z,2.07
2023-02-08T15:34:23.781Z,2.47
2023-02-08T15:36:50.190Z,2.50
2023-02-08T15:39:16.623Z,2.50
2023-02-08T15:41:43.006Z,2.10
2023-02-08T15:44:09.388Z,2.00
2023-02-08T15:46:35.775Z,2.20
2023-02-08T15:49:02.154Z,2.20
2023-02-08T15:51:28.542Z,2.50
2023-02-08T15:53:55.081Z,2.37
2023-02-08T15:56:35.392Z,2.23
2023-02-08T15:58:47.639Z,2.30
2023-02-08T16:01:14.092Z,1.90
2023-02-08T16:03:40.493Z,2.00
2023-02-08T16:06:06.802Z,2.27
2023-02-08T16:08:33.150Z,2.33
2023-02-08T16:10:59.641Z,2.27
2023-02-08T16:13:25.872Z,2.30
2023-02-08T16:15:58.012Z,1.90
2023-02-08T16:18:18.594Z,2.13
2023-02-08T16:20:45.222Z,2.00
2023-02-08T16:23:11.325Z,1.90
2023-02-08T16:25:37.720Z,2.30
2023-02-08T16:28:04.107Z,2.23
2023-02-08T16:30:30.637Z,1.93
2023-02-08T16:32:56.854Z,2.40
2023-02-08T16:35:23.217Z,2.47
2023-02-08T16:37:49.554Z,2.10
2023-02-08T16:40:15.944Z,2.30
2023-02-08T16:42:42.280Z,2.10
2023-02-08T16:45:09.878Z,2.20
2023-02-08T16:47:35.113Z,2.27
2023-02-08T16:50:01.530Z,2.03
2023-02-08T16:52:27.834Z,1.80
2023-02-08T16:54:54.229Z,2.00
2023-02-08T16:57:20.562Z,2.20
2023-02-08T16:59:46.937Z,2.20
2023-02-08T17:02:13.317Z,2.00
2023-02-08T17:04:41.370Z,2.00
2023-02-08T17:07:06.093Z,2.70
2023-02-08T17:09:32.480Z,2.03
2023-02-08T17:11:58.826Z,2.27
2023-02-08T17:14:25.216Z,1.90
2023-02-08T17:16:51.565Z,2.00
2023-02-08T17:19:17.993Z,2.07
2023-02-08T17:21:44.296Z,2.00
2023-02-08T17:24:10.721Z,2.30
2023-02-08T17:26:37.090Z,1.97
2023-02-08T17:29:03.465Z,1.97
2023-02-08T17:31:29.886Z,2.47
2023-02-08T17:33:56.187Z,1.97
2023-02-08T17:36:22.669Z,2.10
2023-02-08T17:38:49.020Z,1.90
2023-02-08T17:41:15.361Z,2.20
2023-02-08T17:43:41.757Z,1.97
2023-02-08T17:46:08.105Z,2.10
2023-02-08T17:48:34.484Z,1.93
2023-02-08T17:51:00.857Z,2.03
2023-02-08T17:53:31.064Z,2.47
2023-02-08T17:55:56.020Z,2.60
2023-02-08T17:58:22.396Z,2.43
2023-02-08T18:00:48.763Z,3.10
2023-02-08T18:03:15.268Z,2.77
2023-02-08T18:05:41.514Z,3.20
2023-02-08T18:08:07.993Z,2.80
2023-02-08T18:10:34.409Z,3.00
2023-02-08T18:13:00.801Z,4.40
2023-02-08T18:15:27.143Z,3.13
2023-02-08T18:17:53.525Z,4.40
2023-02-08T18:20:19.874Z,4.50
2023-02-08T18:22:46.265Z,4.60
2023-02-08T18:25:12.615Z,4.47
2023-02-08T18:27:38.983Z,4.60
2023-02-08T18:30:05.330Z,3.70
2023-02-08T18:32:31.712Z,4.60
2023-02-08T18:34:58.591Z,4.07
2023-02-08T18:37:24.473Z,4.63
2023-02-08T18:39:50.808Z,4.27
2023-02-08T18:42:17.234Z,4.27
2023-02-08T18:44:43.551Z,4.30
2023-02-08T18:47:09.931Z,4.57
2023-02-08T18:49:36.284Z,4.43
2023-02-08T18:52:02.661Z,4.23
2023-02-08T18:54:29.008Z,4.73
2023-02-08T18:56:55.406Z,4.80
2023-02-08T18:59:21.751Z,4.20
2023-02-08T19:01:48.184Z,4.07
2023-02-08T19:04:14.574Z,4.07
2023-02-08T19:06:40.948Z,4.13
2023-02-08T19:09:07.293Z,4.50
2023-02-08T19:11:33.679Z,4.53
2023-02-08T19:14:00.018Z,4.30
2023-02-08T19:16:26.459Z,4.77
2023-02-08T19:18:52.776Z,4.30
2023-02-08T19:21:19.187Z,4.60
2023-02-08T19:23:45.509Z,3.87
2023-02-08T19:26:11.892Z,4.23
2023-02-08T19:28:38.241Z,4.60
2023-02-08T19:31:04.777Z,3.87
2023-02-08T19:33:31.010Z,4.20
2023-02-08T19:35:57.400Z,3.93
2023-02-08T19:38:23.780Z,3.97
2023-02-08T19:40:50.119Z,3.97
2023-02-08T19:43:16.499Z,4.20
2023-02-08T19:45:43.329Z,3.93
2023-02-08T19:48:09.233Z,4.20
2023-02-08T19:50:35.617Z,4.00
2023-02-08T19:53:01.962Z,4.43
2023-02-08T19:55:28.479Z,3.83
2023-02-08T19:57:54.836Z,3.50
2023-02-08T20:00:24.258Z,4.00
2023-02-08T20:02:47.560Z,3.80
2023-02-08T20:05:13.970Z,3.90
2023-02-08T20:07:40.305Z,4.27
2023-02-08T20:10:06.688Z,3.77
2023-02-08T20:12:33.030Z,3.80
2023-02-08T20:14:59.416Z,3.63
2023-02-08T20:17:25.756Z,3.50
2023-02-08T20:19:52.155Z,3.60
2023-02-08T20:22:18.501Z,3.47
2023-02-08T20:24:45.984Z,3.40
2023-02-08T20:27:12.325Z,3.90
2023-02-08T20:29:38.717Z,3.90
2023-02-08T20:32:05.091Z,3.90
2023-02-08T20:34:32.777Z,3.50
2023-02-08T20:37:07.297Z,3.53
2023-02-08T20:39:24.275Z,3.67
2023-02-08T20:41:50.621Z,3.63
2023-02-08T20:44:16.995Z,3.90
2023-02-08T20:46:43.333Z,3.33
2023-02-08T20:49:09.725Z,3.70
2023-02-08T20:51:36.065Z,3.73
2023-02-08T20:54:02.447Z,3.43
2023-02-08T20:56:28.788Z,3.37
2023-02-08T20:58:55.169Z,3.73
2023-02-08T21:01:21.574Z,3.50
2023-02-08T21:03:47.917Z,3.37
2023-02-08T21:06:14.276Z,3.57
2023-02-08T21:08:40.702Z,3.30
2023-02-08T21:11:07.049Z,3.20
2023-02-08T21:13:34.723Z,3.60
2023-02-08T21:15:59.786Z,3.37
2023-02-08T21:18:26.160Z,3.30
2023-02-08T21:20:52.509Z,3.40
2023-02-08T21:23:18.882Z,3.50
2023-02-08T21:25:45.303Z,3.23
2023-02-08T21:28:11.860Z,3.57
2023-02-08T21:30:38.063Z,3.30
2023-02-08T21:33:04.394Z,3.13
2023-02-08T21:35:30.736Z,3.80
2023-02-08T21:37:57.119Z,3.23
2023-02-08T21:40:23.461Z,3.00
2023-02-08T21:42:49.838Z,2.93
2023-02-08T21:45:16.185Z,3.20
2023-02-08T21:47:42.573Z,2.90
2023-02-08T21:50:09.070Z,3.13
2023-02-08T21:52:35.462Z,2.90
2023-02-08T21:55:01.863Z,3.70
2023-02-08T21:57:28.256Z,2.80
2023-02-08T21:59:54.583Z,3.00
2023-02-08T22:02:20.972Z,2.60
2023-02-08T22:04:47.314Z,3.27
2023-02-08T22:07:13.707Z,3.00
2023-02-08T22:09:40.036Z,3.10
2023-02-08T22:12:06.452Z,3.00
2023-02-08T22:14:32.823Z,3.10
2023-02-08T22:16:59.205Z,3.00
2023-02-08T22:19:25.550Z,3.23
2023-02-08T22:21:51.932Z,2.60
2023-02-08T22:24:18.306Z,3.27
2023-02-08T22:26:44.664Z,2.70
2023-02-08T22:29:11.015Z,2.83
2023-02-08T22:31:37.462Z,2.70
2023-02-08T22:34:03.762Z,2.43
2023-02-08T22:36:30.154Z,2.97
2023-02-08T22:38:56.503Z,2.70
2023-02-08T22:41:22.899Z,3.00
2023-02-08T22:43:49.248Z,3.00
2023-02-08T22:46:15.700Z,2.70
2023-02-08T22:48:41.991Z,2.93
2023-02-08T22:51:08.393Z,3.13
2023-02-08T22:53:34.717Z,2.70
2023-02-08T22:56:01.125Z,3.00
2023-02-08T22:58:27.477Z,2.90
2023-02-08T23:00:53.853Z,2.70
2023-02-08T23:03:20.191Z,3.17
2023-02-08T23:05:46.570Z,3.10
2023-02-08T23:08:12.962Z,2.50
2023-02-08T23:10:39.350Z,2.73
2023-02-08T23:13:06.878Z,2.70
2023-02-08T23:15:32.171Z,2.90
2023-02-08T23:17:58.582Z,2.40
2023-02-08T23:20:25.018Z,2.80
2023-02-08T23:22:51.364Z,2.57
2023-02-08T23:25:17.818Z,2.60
2023-02-08T23:27:44.158Z,2.70
2023-02-08T23:30:10.558Z,2.50
2023-02-08T23:50:58.570Z,2.40
2023-02-08T23:53:23.888Z,2.53
2023-02-08T23:55:50.244Z,2.60
2023-02-08T23:58:16.626Z,2.60
